Time;durP1;ratioP1;P1;durP2;ratioP2;P2;SDS_P1;SDS_P2;PMS_P1;PMS_P2;Temp;Humidity;BMP_temperature;BMP_pressure;BME280_temperature;BME280_humidity;BME280_pressure;Samples;Min_cycle;Max_cycle;Signal;HPM_P1;HPM_P2
2021/08/15 00:00:39;;;;;;;16.50;13.13;;;;;;;20.51;90.48;96402.00;5053527;28;20029;-79
2021/08/15 00:03:05;;;;;;;18.42;12.85;;;;;;;20.62;89.50;96404.81;5064307;28;20027;-80
2021/08/15 00:05:31;;;;;;;19.40;13.43;;;;;;;20.55;89.94;96397.84;5066242;28;20008;-80
2021/08/15 00:07:57;;;;;;;18.05;13.05;;;;;;;20.43;90.44;96406.56;5074234;28;20029;-79
2021/08/15 00:10:23;;;;;;;17.42;13.15;;;;;;;20.32;91.12;96399.25;5075736;28;20036;-79
2021/08/15 00:12:49;;;;;;;15.02;13.13;;;;;;;20.24;91.63;96396.81;5051876;28;20063;-79
2021/08/15 00:15:16;;;;;;;17.67;13.35;;;;;;;20.18;92.08;96398.50;5054627;28;20026;-79
2021/08/15 00:17:42;;;;;;;16.52;13.32;;;;;;;20.10;92.32;96397.97;5080541;28;20033;-80
2021/08/15 00:20:10;;;;;;;18.10;12.40;;;;;;;20.12;92.65;96395.88;5072989;28;20020;-80
2021/08/15 00:22:41;;;;;;;17.23;13.27;;;;;;;20.08;92.51;96398.16;5066063;28;20087;-79
2021/08/15 00:25:08;;;;;;;14.30;12.55;;;;;;;20.12;91.82;96393.19;5057249;28;20701;-80
2021/08/15 00:27:34;;;;;;;17.83;13.43;;;;;;;20.12;91.76;96387.88;5069322;28;20115;-79
2021/08/15 00:30:00;;;;;;;19.63;13.70;;;;;;;20.19;91.33;96383.31;5072925;28;20617;-81
2021/08/15 00:32:26;;;;;;;15.02;12.65;;;;;;;20.20;91.21;96383.09;5069334;28;20127;-79
2021/08/15 00:34:51;;;;;;;15.63;11.82;;;;;;;20.19;90.80;96372.63;5065302;28;20912;-79
2021/08/15 00:37:17;;;;;;;16.15;12.35;;;;;;;20.19;91.21;96377.97;5075298;28;20028;-80
2021/08/15 00:39:43;;;;;;;14.45;12.43;;;;;;;20.16;91.17;96370.41;5079961;28;20089;-79
2021/08/15 00:42:09;;;;;;;17.27;12.52;;;;;;;20.12;91.17;96374.50;5056511;28;20035;-79
2021/08/15 00:44:35;;;;;;;15.73;12.80;;;;;;;20.04;92.01;96374.78;5075985;28;20028;-79
2021/08/15 00:47:00;;;;;;;16.75;12.60;;;;;;;19.92;91.85;96377.31;5083973;28;20426;-80
2021/08/15 00:49:26;;;;;;;14.45;11.93;;;;;;;19.92;92.21;96374.63;5076724;28;20036;-81
2021/08/15 00:51:52;;;;;;;16.13;12.50;;;;;;;19.77;92.30;96375.75;5072922;28;20607;-79
2021/08/15 00:54:19;;;;;;;14.30;12.05;;;;;;;19.80;92.24;96377.19;5079869;28;20511;-79
2021/08/15 00:56:54;;;;;;;14.30;11.75;;;;;;;19.71;92.71;96370.44;5091344;28;20055;-79
2021/08/15 00:59:21;;;;;;;15.35;11.45;;;;;;;19.76;92.35;96365.31;5081756;28;20036;-79
2021/08/15 01:01:51;;;;;;;13.95;11.18;;;;;;;19.75;92.53;96363.66;5071467;28;20056;-79
2021/08/15 01:04:18;;;;;;;16.23;12.00;;;;;;;19.76;92.48;96365.31;5054865;28;20036;-79
2021/08/15 01:06:47;;;;;;;15.80;11.30;;;;;;;19.75;92.35;96359.16;5072237;28;20662;-79
2021/08/15 01:09:13;;;;;;;14.88;12.20;;;;;;;19.72;92.15;96366.78;5085914;28;20034;-79
2021/08/15 01:11:39;;;;;;;15.50;12.07;;;;;;;19.64;92.42;96357.13;5076973;28;20493;-79
2021/08/15 01:14:06;;;;;;;13.68;10.68;;;;;;;19.62;92.69;96355.72;5086855;28;20650;-79
2021/08/15 01:16:36;;;;;;;15.52;11.80;;;;;;;19.53;93.12;96350.59;5080015;28;20031;-79
2021/08/15 01:19:02;;;;;;;16.08;12.00;;;;;;;19.47;93.23;96353.28;5059967;28;20158;-80
2021/08/15 01:21:28;;;;;;;16.13;11.85;;;;;;;19.44;93.47;96349.19;5073312;28;20479;-79
2021/08/15 01:23:53;;;;;;;16.63;12.52;;;;;;;19.33;94.64;96343.72;5077416;28;20078;-80
2021/08/15 01:26:21;;;;;;;15.13;12.38;;;;;;;19.32;94.66;96358.91;5075144;28;20028;-80
2021/08/15 01:28:48;;;;;;;16.13;12.30;;;;;;;19.32;94.18;96350.91;5086960;28;20593;-80
2021/08/15 01:31:14;;;;;;;16.95;13.05;;;;;;;19.24;95.21;96351.13;5078542;28;20181;-79
2021/08/15 01:33:41;;;;;;;17.95;13.75;;;;;;;19.26;94.82;96349.09;5076385;28;20032;-79
2021/08/15 01:36:12;;;;;;;14.13;12.27;;;;;;;19.22;95.22;96351.34;5073790;28;20032;-79
2021/08/15 01:38:39;;;;;;;15.60;13.85;;;;;;;19.03;96.62;96345.03;5081809;28;20037;-79
2021/08/15 01:41:06;;;;;;;16.65;13.57;;;;;;;18.92;97.25;96347.56;5086596;28;20020;-80
2021/08/15 01:43:55;;;;;;;15.25;13.10;;;;;;;18.92;97.39;96342.22;5095466;28;20031;-80
2021/08/15 01:46:23;;;;;;;17.92;14.10;;;;;;;18.81;97.85;96333.00;5075484;28;20051;-80
2021/08/15 01:48:49;;;;;;;16.23;13.00;;;;;;;18.72;98.74;96336.94;5086224;28;20024;-79
2021/08/15 01:51:16;;;;;;;16.08;13.13;;;;;;;18.65;99.30;96333.44;5085332;28;20112;-79
2021/08/15 01:53:42;;;;;;;19.27;14.45;;;;;;;18.54;99.48;96334.88;5079460;28;20044;-80
2021/08/15 01:56:08;;;;;;;19.85;13.90;;;;;;;18.50;99.92;96326.47;5058321;28;20038;-79
2021/08/15 01:58:34;;;;;;;16.50;12.98;;;;;;;18.52;99.86;96329.75;5063054;28;20028;-79
2021/08/15 02:01:00;;;;;;;17.02;13.32;;;;;;;18.51;100.00;96325.47;5077989;28;20504;-79
2021/08/15 02:03:26;;;;;;;18.33;14.07;;;;;;;18.46;100.00;96324.44;5071854;28;20025;-79
2021/08/15 02:05:52;;;;;;;16.13;13.00;;;;;;;18.46;100.00;96327.91;5080189;28;20385;-80
2021/08/15 02:08:17;;;;;;;19.77;14.35;;;;;;;18.35;100.00;96328.53;5083375;28;20024;-79
2021/08/15 02:10:44;;;;;;;22.35;14.20;;;;;;;18.32;100.00;96320.97;5073319;28;20043;-78
2021/08/15 02:13:09;;;;;;;16.15;12.40;;;;;;;18.35;100.00;96324.03;5073976;28;20020;-79
2021/08/15 02:15:35;;;;;;;14.90;13.30;;;;;;;18.32;100.00;96328.94;5058299;28;20029;-79
2021/08/15 02:18:02;;;;;;;17.50;13.65;;;;;;;18.21;100.00;96313.56;5073819;28;20375;-79
2021/08/15 02:20:34;;;;;;;17.23;13.32;;;;;;;18.23;100.00;96314.19;5090611;28;20428;-80
2021/08/15 02:23:00;;;;;;;16.70;12.00;;;;;;;18.25;100.00;96315.66;5076732;28;20429;-79
2021/08/15 02:25:27;;;;;;;14.27;12.80;;;;;;;18.25;100.00;96320.97;5082856;28;20491;-80
2021/08/15 02:27:53;;;;;;;14.48;12.00;;;;;;;18.19;100.00;96312.97;5066443;28;20613;-78
2021/08/15 02:30:21;;;;;;;15.95;12.20;;;;;;;18.02;100.00;96323.22;5061034;28;20020;-79
2021/08/15 02:32:49;;;;;;;16.15;12.68;;;;;;;17.95;100.00;96315.22;5074469;28;20057;-81
2021/08/15 02:35:16;;;;;;;14.65;11.95;;;;;;;17.97;100.00;96312.34;5069847;28;20055;-79
2021/08/15 02:37:45;;;;;;;15.18;12.25;;;;;;;18.01;100.00;96310.94;5079188;28;20085;-79
2021/08/15 02:40:12;;;;;;;16.00;12.05;;;;;;;18.05;100.00;96318.31;5056221;28;20016;-79
2021/08/15 02:42:39;;;;;;;15.65;12.23;;;;;;;18.01;100.00;96314.41;5069330;28;20043;-79
2021/08/15 02:45:07;;;;;;;15.80;11.95;;;;;;;17.97;100.00;96315.81;5079302;28;20074;-79
2021/08/15 02:47:34;;;;;;;14.77;12.10;;;;;;;18.06;100.00;96316.44;5063456;28;20048;-79
2021/08/15 02:50:00;;;;;;;16.33;12.40;;;;;;;18.08;100.00;96320.56;5079895;28;20055;-79
2021/08/15 02:52:26;;;;;;;19.17;12.98;;;;;;;18.03;100.00;96315.00;5074721;28;20042;-79
2021/08/15 02:54:52;;;;;;;13.50;12.10;;;;;;;18.02;100.00;96315.22;5076686;28;20020;-79
2021/08/15 02:57:17;;;;;;;17.20;12.30;;;;;;;18.07;100.00;96315.41;5053271;28;20038;-80
2021/08/15 02:59:43;;;;;;;17.25;12.85;;;;;;;18.09;100.00;96316.06;5039972;28;20032;-79
2021/08/15 03:02:11;;;;;;;13.95;11.73;;;;;;;18.18;100.00;96306.84;5050378;28;20043;-79
2021/08/15 03:04:37;;;;;;;17.50;13.13;;;;;;;18.19;100.00;96302.34;5068535;28;20103;-79
2021/08/15 03:07:03;;;;;;;14.10;12.60;;;;;;;18.21;100.00;96313.56;5073504;28;20032;-79
2021/08/15 03:09:30;;;;;;;19.25;13.65;;;;;;;18.13;100.00;96312.75;5080087;28;20063;-79
2021/08/15 03:11:56;;;;;;;15.52;12.57;;;;;;;17.99;100.00;96312.97;5081089;28;20123;-79
2021/08/15 03:14:22;;;;;;;15.52;13.18;;;;;;;17.98;100.00;96312.16;5081728;28;20034;-79
2021/08/15 03:16:48;;;;;;;14.75;12.70;;;;;;;17.96;100.00;96311.53;5073540;28;20440;-79
2021/08/15 03:19:13;;;;;;;17.00;13.40;;;;;;;17.91;100.00;96306.03;5067855;28;20141;-79
2021/08/15 03:21:39;;;;;;;16.55;13.10;;;;;;;17.96;100.00;96306.22;5069077;28;20112;-80
2021/08/15 03:24:05;;;;;;;14.23;12.23;;;;;;;17.97;100.00;96302.53;5086323;28;20024;-79
2021/08/15 03:26:32;;;;;;;15.43;12.65;;;;;;;17.93;100.00;96309.28;5076244;28;20024;-79
2021/08/15 03:28:58;;;;;;;18.48;13.73;;;;;;;17.81;100.00;96308.25;5077452;28;20032;-79
2021/08/15 03:31:24;;;;;;;16.85;13.25;;;;;;;17.85;100.00;96314.81;5082417;28;20040;-79
2021/08/15 03:33:50;;;;;;;16.25;13.50;;;;;;;17.83;100.00;96309.66;5072261;28;20028;-79
2021/08/15 03:36:16;;;;;;;14.15;12.48;;;;;;;17.85;100.00;96304.16;5075870;28;20046;-79
2021/08/15 03:38:43;;;;;;;16.73;13.43;;;;;;;17.80;100.00;96302.09;5060929;28;20021;-79
2021/08/15 03:41:10;;;;;;;17.20;12.00;;;;;;;17.74;100.00;96304.72;5071937;28;20564;-79
2021/08/15 03:43:35;;;;;;;14.07;11.52;;;;;;;17.80;100.00;96304.75;5061963;28;20078;-79
2021/08/15 03:46:01;;;;;;;14.20;11.52;;;;;;;17.89;100.00;96305.38;5069263;28;20032;-79
2021/08/15 03:48:27;;;;;;;15.75;11.77;;;;;;;17.96;100.00;96308.06;5078861;28;20032;-78
2021/08/15 03:50:53;;;;;;;13.35;11.35;;;;;;;17.93;100.00;96308.47;5079198;28;20036;-79
2021/08/15 03:53:18;;;;;;;14.27;11.60;;;;;;;17.80;100.00;96301.28;5059056;28;20033;-79
2021/08/15 03:55:44;;;;;;;18.27;11.35;;;;;;;17.84;100.00;96300.69;5080589;28;20039;-79
2021/08/15 03:58:11;;;;;;;14.98;11.30;;;;;;;17.76;100.00;96303.53;5067182;28;20093;-80
2021/08/15 04:00:40;;;;;;;13.13;10.85;;;;;;;17.75;100.00;96298.38;5082973;28;20047;-79
2021/08/15 04:03:10;;;;;;;13.32;10.52;;;;;;;17.80;100.00;96306.59;5084511;28;20027;-81
2021/08/15 04:05:37;;;;;;;15.68;10.68;;;;;;;17.85;100.00;96302.31;5052591;28;20036;-79
2021/08/15 04:08:05;;;;;;;13.55;10.93;;;;;;;17.88;100.00;96301.09;5054567;28;20024;-78
2021/08/15 04:10:32;;;;;;;14.38;11.57;;;;;;;17.79;100.00;96305.78;5050592;28;20041;-78
2021/08/15 04:12:57;;;;;;;15.25;11.77;;;;;;;17.67;100.00;96300.22;5078278;28;20025;-79
2021/08/15 04:15:23;;;;;;;16.98;12.63;;;;;;;17.59;100.00;96300.41;5077339;28;20039;-80
2021/08/15 04:17:49;;;;;;;14.18;12.00;;;;;;;17.47;100.00;96302.03;5054988;28;20029;-78
2021/08/15 04:20:15;;;;;;;19.10;11.70;;;;;;;17.48;100.00;96305.50;5078882;28;20504;-79
2021/08/15 04:22:41;;;;;;;14.18;12.15;;;;;;;17.41;100.00;96297.50;5071721;28;20736;-79
2021/08/15 04:25:07;;;;;;;16.00;12.10;;;;;;;17.39;100.00;96291.56;5081953;28;20047;-78
2021/08/15 04:27:33;;;;;;;16.30;11.32;;;;;;;17.43;100.00;96287.47;5076741;28;20024;-79
2021/08/15 04:29:59;;;;;;;14.95;11.55;;;;;;;17.50;100.00;96282.97;5088269;28;20202;-79
2021/08/15 04:32:25;;;;;;;13.25;11.85;;;;;;;17.61;100.00;96295.72;5080630;28;20553;-79
2021/08/15 04:34:51;;;;;;;16.52;11.60;;;;;;;17.68;100.00;96291.22;5080611;28;20028;-79
2021/08/15 04:37:18;;;;;;;18.67;12.18;;;;;;;17.68;100.00;96295.72;5082692;28;20489;-79
2021/08/15 04:39:47;;;;;;;13.65;11.65;;;;;;;17.70;100.00;96292.84;5084041;28;20109;-79
2021/08/15 04:42:12;;;;;;;18.67;12.85;;;;;;;17.70;100.00;96287.53;5084239;28;20042;-79
2021/08/15 04:44:38;;;;;;;15.02;11.45;;;;;;;17.75;100.00;96293.88;5077622;28;20020;-78
2021/08/15 04:47:04;;;;;;;14.90;11.07;;;;;;;17.85;100.00;96290.88;5073814;28;20082;-79
2021/08/15 04:49:31;;;;;;;12.90;11.45;;;;;;;17.89;100.00;96294.75;5055549;28;20066;-78
2021/08/15 04:51:57;;;;;;;16.42;12.55;;;;;;;17.92;100.00;96288.22;5076672;28;20021;-79
2021/08/15 04:54:26;;;;;;;15.95;12.15;;;;;;;17.90;100.00;96288.41;5076659;28;20035;-79
2021/08/15 04:56:52;;;;;;;18.10;11.63;;;;;;;18.05;100.00;96288.22;5072196;28;20037;-79
2021/08/15 04:59:18;;;;;;;16.25;11.73;;;;;;;18.02;100.00;96281.44;5076617;28;20576;-79
2021/08/15 05:01:44;;;;;;;14.32;12.65;;;;;;;17.96;100.00;96281.44;5067625;28;20043;-79
2021/08/15 05:04:10;;;;;;;14.23;12.27;;;;;;;18.05;100.00;96280.22;5070443;28;20024;-79
2021/08/15 05:06:35;;;;;;;15.10;12.30;;;;;;;18.11;100.00;96274.09;5075666;28;20020;-79
2021/08/15 05:09:02;;;;;;;14.30;12.05;;;;;;;18.18;100.00;96268.75;5065302;28;20029;-78
2021/08/15 05:11:28;;;;;;;14.73;12.02;;;;;;;18.25;100.00;96273.06;5060278;28;20070;-79
2021/08/15 05:13:54;;;;;;;14.18;11.05;;;;;;;18.42;99.45;96275.28;5082227;28;20473;-79
2021/08/15 05:16:19;;;;;;;13.63;10.93;;;;;;;18.53;98.89;96271.97;5072470;28;20154;-80
2021/08/15 05:18:45;;;;;;;15.52;11.10;;;;;;;18.71;98.20;96274.81;5074843;28;20689;-79
2021/08/15 05:21:11;;;;;;;16.85;10.90;;;;;;;18.66;98.51;96274.63;5081968;28;20032;-78
2021/08/15 05:23:36;;;;;;;13.65;10.88;;;;;;;18.81;97.37;96269.06;5062441;28;20032;-78
2021/08/15 05:26:02;;;;;;;15.52;12.20;;;;;;;18.89;96.23;96274.16;5072345;28;20029;-78
2021/08/15 05:28:28;;;;;;;12.90;11.02;;;;;;;19.15;94.90;96269.75;5071102;28;20432;-79
2021/08/15 05:30:54;;;;;;;12.30;10.23;;;;;;;19.36;93.34;96271.31;5063139;28;20139;-79
2021/08/15 05:33:19;;;;;;;13.80;10.90;;;;;;;19.65;91.54;96269.91;5077527;28;20081;-79
2021/08/15 05:35:45;;;;;;;12.48;9.75;;;;;;;19.67;90.72;96265.19;5077557;28;22020;-79
2021/08/15 05:38:11;;;;;;;12.68;10.20;;;;;;;19.80;90.46;96261.63;5087860;28;20050;-79
2021/08/15 05:40:37;;;;;;;15.07;10.23;;;;;;;20.14;88.30;96269.13;5084082;28;20039;-79
2021/08/15 05:43:02;;;;;;;14.43;10.23;;;;;;;20.17;88.34;96257.22;5073903;28;20032;-78
2021/08/15 05:45:29;;;;;;;12.18;9.77;;;;;;;20.05;88.91;96258.94;5063547;28;20032;-79
2021/08/15 05:47:54;;;;;;;13.65;10.13;;;;;;;20.58;86.65;96267.31;5073315;28;20024;-79
2021/08/15 05:50:20;;;;;;;13.05;10.73;;;;;;;20.81;84.97;96257.84;5081623;28;20408;-79
2021/08/15 05:52:46;;;;;;;17.60;12.07;;;;;;;21.13;83.86;96255.81;5081905;28;20032;-79
2021/08/15 05:55:12;;;;;;;16.80;12.90;;;;;;;21.28;82.24;96258.91;5080948;28;20145;-79
2021/08/15 05:57:37;;;;;;;14.75;11.82;;;;;;;21.32;83.08;96251.22;5054887;28;20135;-79
2021/08/15 06:00:05;;;;;;;17.52;12.48;;;;;;;21.33;83.35;96259.06;5082191;28;20047;-79
2021/08/15 06:02:37;;;;;;;14.50;10.05;;;;;;;21.48;82.41;96257.84;5068406;28;20043;-79
2021/08/15 06:05:03;;;;;;;14.75;9.60;;;;;;;21.98;80.74;96257.50;5053434;28;20486;-78
2021/08/15 06:07:29;;;;;;;12.05;9.10;;;;;;;22.25;78.57;96257.91;5080144;28;20703;-79
2021/08/15 06:09:55;;;;;;;11.57;8.85;;;;;;;23.02;75.62;96258.56;5080292;28;20032;-79
2021/08/15 06:12:20;;;;;;;11.52;9.25;;;;;;;23.41;75.13;96266.03;5060442;28;20486;-79
2021/08/15 06:14:46;;;;;;;11.90;8.90;;;;;;;23.44;76.03;96260.16;5073655;28;20036;-79
2021/08/15 06:17:12;;;;;;;10.82;8.70;;;;;;;23.48;75.73;96253.28;5067703;28;20028;-80
2021/08/15 06:19:37;;;;;;;10.73;8.27;;;;;;;23.38;74.76;96263.84;5066536;28;20036;-79
2021/08/15 06:22:03;;;;;;;13.68;10.20;;;;;;;23.28;75.70;96267.94;5088150;28;20025;-79
2021/08/15 06:24:29;;;;;;;13.70;8.93;;;;;;;23.76;75.23;96269.41;5060780;28;20040;-79
2021/08/15 06:26:55;;;;;;;11.70;9.80;;;;;;;23.97;72.51;96261.69;5080577;28;20023;-79
2021/08/15 06:29:21;;;;;;;17.73;14.65;;;;;;;24.83;70.82;96264.91;5054220;28;20036;-80
2021/08/15 06:31:47;;;;;;;20.95;18.70;;;;;;;25.07;69.01;96257.41;5077976;28;20443;-79
2021/08/15 06:34:14;;;;;;;12.20;9.57;;;;;;;25.06;69.33;96261.16;5063844;28;20194;-79
2021/08/15 06:36:39;;;;;;;13.70;9.93;;;;;;;24.83;68.21;96267.59;5060378;28;20058;-79
2021/08/15 06:39:05;;;;;;;14.05;9.57;;;;;;;25.52;66.91;96253.66;5071385;28;20032;-79
2021/08/15 06:41:32;;;;;;;12.43;10.13;;;;;;;25.98;65.67;96255.97;5080051;28;20032;-79
2021/08/15 06:43:58;;;;;;;17.48;13.95;;;;;;;26.14;63.96;96256.94;5086603;28;20099;-79
2021/08/15 06:46:23;;;;;;;12.07;10.68;;;;;;;25.51;67.60;96257.38;5065914;28;20059;-79
2021/08/15 06:48:49;;;;;;;10.23;9.07;;;;;;;25.79;65.34;96252.84;5068653;28;20120;-79
2021/08/15 06:51:15;;;;;;;10.80;8.38;;;;;;;26.07;65.08;96251.75;5058472;28;20123;-79
2021/08/15 06:53:41;;;;;;;12.48;10.88;;;;;;;26.59;64.25;96245.66;5072087;28;20394;-79
2021/08/15 06:56:09;;;;;;;16.25;9.75;;;;;;;26.35;62.81;96250.59;5079756;28;20036;-79
2021/08/15 06:58:36;;;;;;;11.88;9.23;;;;;;;26.34;62.49;96243.59;5071937;28;20650;-80
2021/08/15 07:01:02;;;;;;;10.43;8.20;;;;;;;26.55;63.29;96245.38;5080805;28;20030;-79
2021/08/15 07:03:28;;;;;;;12.27;8.35;;;;;;;26.58;62.80;96237.84;5051698;28;20553;-79
2021/08/15 07:05:53;;;;;;;11.68;8.45;;;;;;;26.27;64.01;96238.44;5054600;28;20108;-80
2021/08/15 07:08:19;;;;;;;12.05;8.90;;;;;;;26.20;63.63;96239.72;5055029;28;20066;-79
2021/08/15 07:10:45;;;;;;;12.90;8.07;;;;;;;27.78;59.03;96237.81;5079779;28;20040;-80
2021/08/15 07:13:11;;;;;;;10.13;8.18;;;;;;;28.10;56.91;96231.31;5087896;28;20037;-79
2021/08/15 07:15:37;;;;;;;12.57;9.25;;;;;;;28.05;56.12;96224.03;5071348;28;20033;-79
2021/08/15 07:18:03;;;;;;;10.80;8.73;;;;;;;26.70;59.61;96238.47;5066914;28;20103;-79
2021/08/15 07:20:29;;;;;;;11.77;7.88;;;;;;;27.09;57.83;96238.91;5053148;28;20032;-79
2021/08/15 07:22:56;;;;;;;10.52;7.68;;;;;;;28.26;54.88;96232.94;5086660;28;20040;-79
2021/08/15 07:25:25;;;;;;;15.15;12.57;;;;;;;28.71;54.08;96231.28;5073257;28;20035;-79
2021/08/15 07:27:50;;;;;;;15.93;11.73;;;;;;;29.67;52.52;96226.53;5071029;28;20477;-79
2021/08/15 07:30:17;;;;;;;10.13;7.80;;;;;;;29.82;53.01;96233.78;5087872;28;20075;-79
2021/08/15 07:32:51;;;;;;;9.55;7.55;;;;;;;29.34;54.63;96231.59;5070386;28;20034;-79
2021/08/15 07:35:17;;;;;;;10.10;6.68;;;;;;;30.04;48.95;96227.91;5079509;28;20054;-80
2021/08/15 07:37:43;;;;;;;11.70;8.68;;;;;;;30.23;51.61;96228.88;5072337;28;20515;-79
2021/08/15 07:40:09;;;;;;;9.73;8.07;;;;;;;30.73;50.66;96226.75;5069403;28;20040;-79
2021/08/15 07:42:35;;;;;;;9.30;7.97;;;;;;;31.17;48.94;96233.88;5066461;28;20029;-79
2021/08/15 07:45:01;;;;;;;9.20;7.72;;;;;;;30.87;49.50;96234.22;5069141;28;20088;-79
2021/08/15 07:47:27;;;;;;;9.25;8.13;;;;;;;30.19;51.81;96232.44;5058687;28;20103;-79
2021/08/15 07:49:52;;;;;;;9.68;8.15;;;;;;;30.64;50.09;96228.47;5071149;28;20077;-79
2021/08/15 07:52:18;;;;;;;9.63;7.78;;;;;;;30.84;49.07;96227.47;5078383;28;20075;-79
2021/08/15 07:54:44;;;;;;;10.55;8.00;;;;;;;30.92;49.72;96231.44;5061618;28;20056;-79
2021/08/15 07:57:10;;;;;;;12.30;7.88;;;;;;;31.19;48.02;96225.44;5070965;28;20481;-79
2021/08/15 07:59:35;;;;;;;13.35;8.82;;;;;;;32.40;45.79;96223.94;5074059;28;20013;-79
2021/08/15 08:02:01;;;;;;;10.10;7.63;;;;;;;32.37;45.32;96213.66;5078318;28;20070;-79
2021/08/15 08:04:27;;;;;;;11.95;10.18;;;;;;;32.54;45.04;96216.63;5075274;28;20037;-79
2021/08/15 08:06:53;;;;;;;13.50;11.15;;;;;;;32.04;45.37;96213.66;5076882;28;20110;-79
2021/08/15 08:09:18;;;;;;;13.95;8.32;;;;;;;30.91;46.81;96227.13;5085687;28;20366;-79
2021/08/15 08:11:44;;;;;;;11.10;7.45;;;;;;;31.98;45.27;96214.84;5076772;28;20082;-79
2021/08/15 08:14:10;;;;;;;9.95;8.20;;;;;;;30.68;47.96;96209.69;5079564;28;20021;-79
2021/08/15 08:16:36;;;;;;;11.27;7.82;;;;;;;32.11;44.61;96203.19;5059240;28;20067;-79
2021/08/15 08:19:01;;;;;;;10.90;8.05;;;;;;;32.52;43.36;96197.06;5056409;28;20036;-80
2021/08/15 08:21:27;;;;;;;11.02;8.10;;;;;;;31.39;45.89;96203.47;5065039;28;20039;-79
2021/08/15 08:23:53;;;;;;;8.27;6.75;;;;;;;32.93;42.67;96193.56;5080407;28;20038;-79
2021/08/15 08:26:19;;;;;;;10.68;7.32;;;;;;;32.54;41.87;96192.13;5081449;28;20143;-79
2021/08/15 08:28:44;;;;;;;10.30;7.53;;;;;;;32.62;41.11;96194.13;5067364;28;20563;-79
2021/08/15 08:31:10;;;;;;;9.60;7.30;;;;;;;32.93;40.81;96196.28;5086442;28;20025;-80
2021/08/15 08:33:36;;;;;;;12.95;7.22;;;;;;;33.08;40.41;96190.53;5069105;28;20025;-80
2021/08/15 08:36:02;;;;;;;10.73;7.45;;;;;;;31.19;43.79;96201.78;5066717;28;20028;-80
2021/08/15 08:38:27;;;;;;;8.90;7.13;;;;;;;31.98;42.02;96192.28;5076936;28;20058;-80
2021/08/15 08:40:54;;;;;;;10.88;7.75;;;;;;;32.94;41.73;96197.09;5059328;28;20028;-80
2021/08/15 08:43:20;;;;;;;13.32;8.75;;;;;;;32.03;41.86;96198.44;5070863;28;20038;-80
2021/08/15 08:45:47;;;;;;;8.48;7.03;;;;;;;31.84;42.12;96197.63;5066197;28;20025;-81
2021/08/15 08:48:15;;;;;;;8.80;7.13;;;;;;;32.07;41.73;96194.00;5047390;28;20149;-80
2021/08/15 08:50:41;;;;;;;7.88;6.43;;;;;;;32.84;40.13;96187.19;5077638;28;20115;-79
2021/08/15 08:53:07;;;;;;;11.70;8.80;;;;;;;33.02;39.61;96196.41;5076275;28;20110;-80
2021/08/15 08:55:33;;;;;;;11.75;10.55;;;;;;;33.81;38.30;96181.59;5064681;28;20032;-80
2021/08/15 08:57:59;;;;;;;8.10;6.63;;;;;;;34.96;36.44;96186.25;5065137;28;20077;-79
2021/08/15 09:00:25;;;;;;;12.52;7.65;;;;;;;35.06;35.66;96183.25;5065942;28;20111;-79
2021/08/15 09:02:56;;;;;;;10.00;7.28;;;;;;;34.57;37.87;96174.22;5069447;28;20052;-79
2021/08/15 09:05:35;;;;;;;9.60;7.25;;;;;;;34.74;37.98;96178.94;5048197;28;20025;-79
2021/08/15 09:08:01;;;;;;;9.63;6.95;;;;;;;33.83;36.18;96171.16;5078431;28;20064;-80
2021/08/15 09:10:38;;;;;;;13.30;6.57;;;;;;;33.47;37.25;96172.00;5088623;28;20031;-79
2021/08/15 09:13:08;;;;;;;9.93;6.63;;;;;;;34.08;36.23;96167.84;5079248;28;20044;-79
2021/08/15 09:15:46;;;;;;;8.82;6.50;;;;;;;34.59;35.75;96160.28;5074469;28;20094;-80
2021/08/15 09:18:27;;;;;;;9.02;7.40;;;;;;;35.37;34.57;96164.00;5076234;28;20032;-81
2021/08/15 09:20:54;;;;;;;11.75;6.50;;;;;;;35.35;33.90;96160.81;5067689;28;20562;-78
2021/08/15 09:23:32;;;;;;;8.98;6.95;;;;;;;33.83;35.31;96160.25;5072951;28;20025;-78
2021/08/15 09:26:18;;;;;;;10.55;6.72;;;;;;;33.27;37.33;96165.09;5084339;28;20111;-80
2021/08/15 09:28:50;;;;;;;10.95;7.05;;;;;;;33.49;36.61;96151.50;5051526;28;20033;-78
2021/08/15 09:31:19;;;;;;;9.05;7.55;;;;;;;32.75;39.30;96151.69;5079256;28;20025;-79
2021/08/15 09:33:45;;;;;;;7.78;6.47;;;;;;;33.96;36.55;96143.03;5069604;28;20548;-79
2021/08/15 09:36:11;;;;;;;8.30;7.07;;;;;;;33.77;36.71;96148.66;5056707;28;20039;-79
2021/08/15 09:38:46;;;;;;;9.13;6.70;;;;;;;35.50;34.70;96148.59;5066934;28;20035;-79
2021/08/15 09:41:26;;;;;;;7.88;6.57;;;;;;;35.35;33.60;96149.06;5058900;28;20037;-79
2021/08/15 09:44:18;;;;;;;8.18;6.82;;;;;;;35.12;33.91;96143.72;5082319;28;20028;-81
2021/08/15 09:47:09;;;;;;;9.98;7.18;;;;;;;35.82;33.23;96141.84;5069863;28;20024;-79
2021/08/15 09:49:43;;;;;;;11.48;7.50;;;;;;;35.64;33.18;96140.25;5084230;28;20055;-81
2021/08/15 09:52:14;;;;;;;12.95;7.18;;;;;;;35.15;33.42;96137.63;5091059;28;20020;-79
2021/08/15 09:54:51;;;;;;;9.82;6.45;;;;;;;34.10;35.22;96132.84;5074941;28;20123;-79
2021/08/15 09:57:32;;;;;;;9.52;6.97;;;;;;;35.62;32.83;96131.56;5063039;28;20044;-78
2021/08/15 09:59:58;;;;;;;11.13;6.32;;;;;;;35.56;33.28;96119.19;5080163;28;20036;-79
2021/08/15 10:02:25;;;;;;;9.20;6.75;;;;;;;37.38;30.37;96107.50;5089417;28;20004;-80
2021/08/15 10:04:54;;;;;;;10.05;7.47;;;;;;;35.95;32.58;96111.88;5090810;28;20027;-80
2021/08/15 10:07:20;;;;;;;9.38;7.38;;;;;;;33.36;36.56;96119.59;5095079;28;20043;-80
2021/08/15 10:09:46;;;;;;;11.85;7.22;;;;;;;33.16;36.74;96117.34;5075622;28;20029;-81
2021/08/15 10:12:12;;;;;;;9.93;7.00;;;;;;;33.50;36.26;96117.69;5091635;28;20028;-80
2021/08/15 10:14:38;;;;;;;9.30;6.70;;;;;;;35.42;33.53;96102.91;5073357;28;20100;-80
2021/08/15 10:17:11;;;;;;;8.75;7.10;;;;;;;34.41;35.17;96100.09;5086139;28;20039;-81
2021/08/15 10:19:59;;;;;;;12.20;7.30;;;;;;;32.12;38.37;96114.22;5087073;28;20079;-80
2021/08/15 10:22:29;;;;;;;10.88;7.78;;;;;;;32.48;38.16;96105.41;5081016;28;20036;-80
2021/08/15 10:24:57;;;;;;;10.02;7.47;;;;;;;34.86;34.20;96094.47;5082088;28;20033;-80
2021/08/15 10:27:41;;;;;;;11.30;7.18;;;;;;;35.62;32.80;96104.22;5064232;28;20100;-80
2021/08/15 10:30:13;;;;;;;11.48;7.28;;;;;;;34.71;34.24;96103.13;5072310;28;20033;-80
2021/08/15 10:32:57;;;;;;;8.88;6.70;;;;;;;34.03;35.38;96095.09;5075078;28;20572;-80
2021/08/15 10:35:34;;;;;;;9.50;6.88;;;;;;;33.70;35.91;96091.03;5073881;28;20688;-80
2021/08/15 10:38:28;;;;;;;12.32;6.47;;;;;;;34.13;35.53;96088.56;5083918;28;20043;-80
2021/08/15 10:40:55;;;;;;;8.40;6.40;;;;;;;33.74;36.56;96089.31;5083915;28;20037;-80
2021/08/15 10:43:20;;;;;;;8.60;7.00;;;;;;;34.45;34.50;96086.63;5066969;28;20043;-81
2021/08/15 10:46:17;;;;;;;9.13;6.75;;;;;;;34.68;34.21;96087.38;5077059;28;20024;-79
2021/08/15 10:49:00;;;;;;;8.93;6.65;;;;;;;32.52;37.38;96090.88;5080214;28;20047;-80
2021/08/15 10:51:51;;;;;;;9.38;6.85;;;;;;;33.22;36.94;96073.31;5076388;28;20032;-81
2021/08/15 10:54:26;;;;;;;10.13;6.55;;;;;;;33.95;35.77;96076.75;5078474;28;20043;-81
2021/08/15 10:56:56;;;;;;;9.35;6.68;;;;;;;34.55;34.53;96085.56;5088000;28;20043;-80
2021/08/15 10:59:32;;;;;;;8.88;6.90;;;;;;;33.78;36.47;96076.66;5088387;28;20084;-80
2021/08/15 11:02:14;;;;;;;12.55;7.00;;;;;;;34.86;34.29;96080.81;5086056;28;20036;-80
2021/08/15 11:04:53;;;;;;;13.90;7.82;;;;;;;34.29;35.66;96075.31;5079618;28;20048;-80
2021/08/15 11:07:42;;;;;;;9.02;7.15;;;;;;;32.69;37.49;96087.53;5079213;28;20044;-80
2021/08/15 11:10:10;;;;;;;10.65;6.72;;;;;;;33.84;36.49;96074.56;5080758;28;20082;-80
2021/08/15 11:13:22;;;;;;;10.90;6.82;;;;;;;35.48;32.89;96067.97;5079103;28;20040;-80
2021/08/15 11:15:48;;;;;;;9.45;7.25;;;;;;;34.47;33.55;96070.72;5062346;28;20058;-80
2021/08/15 11:18:15;;;;;;;9.57;6.50;;;;;;;33.47;35.82;96074.66;5076855;28;20091;-80
2021/08/15 11:20:49;;;;;;;10.40;6.53;;;;;;;32.71;37.31;96070.91;5087319;28;20159;-80
2021/08/15 11:23:20;;;;;;;10.43;7.22;;;;;;;32.50;38.09;96065.09;5081204;28;20051;-80